Time,TemperatureF,DewpointF,PressureIn,WindDirection,WindDirectionDegrees,WindSpeedMPH,WindSpeedGustMPH,Humidity,HourlyPrecipIn,Conditions,Clouds,dailyrainin,SoftwareType,DateUTC
2013-04-20 00:01:00,69.1,68.2,29.95,West,279,11.0,11.0,97,0.33,,,0.01,Wunderground v.1.15,2013-04-20 04:01:00,
2013-04-20 00:02:00,69.0,67.5,29.95,WNW,292,11.0,11.0,95,0.33,,,0.01,Wunderground v.1.15,2013-04-20 04:02:00,
2013-04-20 00:06:00,68.6,66.8,29.95,West,279,6.0,14.0,94,0.31,,,0.03,Wunderground v.1.15,2013-04-20 04:06:00,
2013-04-20 00:11:00,67.9,65.8,29.95,West,272,10.0,11.0,93,0.23,,,0.05,Wunderground v.1.15,2013-04-20 04:11:00,
2013-04-20 00:12:00,67.8,65.7,29.95,WSW,256,8.0,11.0,93,0.17,,,0.05,Wunderground v.1.15,2013-04-20 04:12:00,
2013-04-20 00:14:00,67.6,65.5,29.95,West,267,11.0,11.0,93,0.11,,,0.05,Wunderground v.1.15,2013-04-20 04:14:00,
2013-04-20 00:20:00,67.4,65.0,29.96,WNW,287,10.0,10.0,92,0.05,,,0.05,Wunderground v.1.15,2013-04-20 04:20:00,
2013-04-20 00:25:00,67.0,63.6,29.95,West,272,5.0,14.0,89,0.04,,,0.05,Wunderground v.1.15,2013-04-20 04:25:00,
2013-04-20 00:31:00,66.3,62.3,29.95,West,273,9.0,10.0,87,0.00,,,0.05,Wunderground v.1.15,2013-04-20 04:31:00,
2013-04-20 00:36:00,65.9,61.9,29.96,WNW,296,6.0,11.0,87,0.00,,,0.05,Wunderground v.1.15,2013-04-20 04:36:00,
2013-04-20 00:42:00,65.5,61.2,29.95,WNW,296,9.0,15.0,86,0.00,,,0.05,Wunderground v.1.15,2013-04-20 04:42:00,
2013-04-20 00:47:00,65.2,61.6,29.96,West,273,10.0,15.0,88,0.00,,,0.05,Wunderground v.1.15,2013-04-20 04:47:00,
2013-04-20 00:52:00,64.8,60.8,29.95,West,269,8.0,16.0,87,0.00,,,0.05,Wunderground v.1.15,2013-04-20 04:52:00,
2013-04-20 00:57:00,64.5,59.9,29.96,West,262,12.0,16.0,85,0.00,,,0.05,Wunderground v.1.15,2013-04-20 04:57:00,
2013-04-20 01:03:00,64.0,59.7,29.97,West,268,11.0,18.0,86,0.00,,,0.05,Wunderground v.1.15,2013-04-20 05:03:00,
2013-04-20 01:09:00,63.4,58.8,29.97,West,263,8.0,12.0,85,0.00,,,0.05,Wunderground v.1.15,2013-04-20 05:09:00,
2013-04-20 01:14:00,62.8,58.5,29.97,West,264,19.0,19.0,86,0.00,,,0.05,Wunderground v.1.15,2013-04-20 05:14:00,
2013-04-20 01:19:00,62.0,58.1,29.97,WSW,243,4.0,11.0,87,0.00,,,0.06,Wunderground v.1.15,2013-04-20 05:19:00,
2013-04-20 01:24:00,61.4,57.8,29.97,NW,306,12.0,22.0,88,0.00,,,0.06,Wunderground v.1.15,2013-04-20 05:24:00,
2013-04-20 01:30:00,60.8,57.5,29.96,NW,310,11.0,12.0,89,0.00,,,0.06,Wunderground v.1.15,2013-04-20 05:30:00,
2013-04-20 01:35:00,60.5,57.6,29.97,West,280,11.0,13.0,90,0.00,,,0.07,Wunderground v.1.15,2013-04-20 05:35:00,
2013-04-20 01:41:00,60.1,57.5,29.96,WNW,296,16.0,16.0,91,0.00,,,0.07,Wunderground v.1.15,2013-04-20 05:41:00,
2013-04-20 01:46:00,59.9,57.3,29.96,West,281,11.0,16.0,91,0.00,,,0.07,Wunderground v.1.15,2013-04-20 05:46:00,
2013-04-20 01:51:00,59.7,57.4,29.96,WNW,283,9.0,12.0,92,0.00,,,0.07,Wunderground v.1.15,2013-04-20 05:51:00,
2013-04-20 01:57:00,59.5,57.5,29.97,NW,309,10.0,12.0,93,0.00,,,0.08,Wunderground v.1.15,2013-04-20 05:57:00,
2013-04-20 02:02:00,59.1,56.8,29.96,WNW,290,13.0,21.0,92,0.08,,,0.09,Wunderground v.1.15,2013-04-20 06:02:00,
2013-04-20 02:07:00,59.0,57.0,29.97,WNW,285,7.0,21.0,93,0.07,,,0.09,Wunderground v.1.15,2013-04-20 06:07:00,
2013-04-20 02:12:00,58.9,57.2,29.95,NW,307,11.0,20.0,94,0.04,,,0.09,Wunderground v.1.15,2013-04-20 06:12:00,
2013-04-20 02:17:00,58.7,57.0,29.95,WNW,300,12.0,20.0,94,0.04,,,0.10,Wunderground v.1.15,2013-04-20 06:17:00,
2013-04-20 02:22:00,58.6,56.9,29.94,NW,312,8.0,20.0,94,0.04,,,0.10,Wunderground v.1.15,2013-04-20 06:22:00,
2013-04-20 02:27:00,58.5,56.8,29.94,NW,306,6.0,20.0,94,0.04,,,0.10,Wunderground v.1.15,2013-04-20 06:27:00,
2013-04-20 02:32:00,58.5,56.8,29.95,WNW,283,12.0,16.0,94,0.00,,,0.10,Wunderground v.1.15,2013-04-20 06:32:00,
2013-04-20 02:37:00,58.4,56.7,29.95,WNW,301,12.0,16.0,94,0.00,,,0.10,Wunderground v.1.15,2013-04-20 06:37:00,
2013-04-20 02:42:00,58.4,56.7,29.96,WNW,296,10.0,15.0,94,0.00,,,0.10,Wunderground v.1.15,2013-04-20 06:42:00,
2013-04-20 02:47:00,58.4,56.7,29.97,WNW,292,6.0,15.0,94,0.00,,,0.10,Wunderground v.1.15,2013-04-20 06:47:00,
2013-04-20 02:52:00,58.5,57.1,29.97,West,263,6.0,11.0,95,0.00,,,0.11,Wunderground v.1.15,2013-04-20 06:52:00,
2013-04-20 02:57:00,58.5,57.1,29.97,WSW,257,8.0,14.0,95,0.08,,,0.12,Wunderground v.1.15,2013-04-20 06:57:00,
2013-04-20 03:02:00,58.5,57.1,29.97,NW,313,10.0,13.0,95,0.08,,,0.12,Wunderground v.1.15,2013-04-20 07:02:00,
2013-04-20 03:07:00,58.3,56.6,29.97,West,278,6.0,18.0,94,0.29,,,0.16,Wunderground v.1.15,2013-04-20 07:07:00,
2013-04-20 03:12:00,58.1,56.7,29.97,WNW,292,12.0,18.0,95,0.15,,,0.18,Wunderground v.1.15,2013-04-20 07:12:00,
2013-04-20 03:17:00,57.9,56.5,29.97,NW,314,6.0,20.0,95,0.21,,,0.19,Wunderground v.1.15,2013-04-20 07:17:00,
2013-04-20 03:22:00,57.8,56.4,29.96,NW,315,5.0,15.0,95,0.19,,,0.21,Wunderground v.1.15,2013-04-20 07:22:00,
2013-04-20 03:27:00,57.7,56.3,29.96,WNW,301,5.0,16.0,95,0.56,,,0.25,Wunderground v.1.15,2013-04-20 07:27:00,
2013-04-20 03:32:00,57.6,56.5,29.96,NNW,336,11.0,21.0,96,0.21,,,0.27,Wunderground v.1.15,2013-04-20 07:32:00,
2013-04-20 03:37:00,57.4,55.7,29.96,NW,311,9.0,21.0,94,0.15,,,0.28,Wunderground v.1.15,2013-04-20 07:37:00,
2013-04-20 03:42:00,56.9,54.6,29.96,WNW,300,16.0,20.0,92,0.07,,,0.28,Wunderground v.1.15,2013-04-20 07:42:00,
2013-04-20 03:47:00,56.1,50.7,29.96,WNW,296,13.0,20.0,82,0.04,,,0.28,Wunderground v.1.15,2013-04-20 07:47:00,
2013-04-20 03:52:00,55.4,49.7,29.97,NW,311,15.0,20.0,81,0.00,,,0.28,Wunderground v.1.15,2013-04-20 07:52:00,
2013-04-20 03:57:00,54.8,50.1,29.97,NW,307,12.0,23.0,84,0.00,,,0.28,Wunderground v.1.15,2013-04-20 07:57:00,
2013-04-20 04:02:00,54.2,49.8,29.97,NW,306,11.0,18.0,85,0.00,,,0.29,Wunderground v.1.15,2013-04-20 08:02:00,
2013-04-20 04:08:00,53.6,49.5,29.97,NW,314,7.0,19.0,86,0.00,,,0.29,Wunderground v.1.15,2013-04-20 08:08:00,
2013-04-20 04:13:00,53.3,49.5,29.98,West,267,7.0,16.0,87,0.00,,,0.29,Wunderground v.1.15,2013-04-20 08:13:00,
2013-04-20 04:18:00,52.9,49.4,29.99,WNW,282,14.0,19.0,88,0.00,,,0.29,Wunderground v.1.15,2013-04-20 08:18:00,
2013-04-20 04:23:00,52.7,49.5,29.98,WNW,291,9.0,18.0,89,0.00,,,0.29,Wunderground v.1.15,2013-04-20 08:23:00,
2013-04-20 04:28:00,52.5,49.7,29.98,WNW,284,10.0,18.0,90,0.00,,,0.29,Wunderground v.1.15,2013-04-20 08:28:00,
2013-04-20 04:33:00,52.4,49.6,29.97,WNW,303,10.0,16.0,90,0.00,,,0.29,Wunderground v.1.15,2013-04-20 08:33:00,
2013-04-20 04:38:00,52.4,49.8,29.97,NW,318,8.0,16.0,91,0.00,,,0.29,Wunderground v.1.15,2013-04-20 08:38:00,
2013-04-20 04:43:00,52.4,49.8,29.99,NW,305,6.0,15.0,91,0.00,,,0.29,Wunderground v.1.15,2013-04-20 08:43:00,
2013-04-20 04:48:00,52.4,50.1,29.99,West,280,8.0,16.0,92,0.00,,,0.30,Wunderground v.1.15,2013-04-20 08:48:00,
2013-04-20 04:53:00,52.4,50.1,30.00,WNW,282,10.0,14.0,92,0.00,,,0.30,Wunderground v.1.15,2013-04-20 08:53:00,
2013-04-20 04:58:00,52.5,50.2,30.00,NW,322,9.0,16.0,92,0.00,,,0.30,Wunderground v.1.15,2013-04-20 08:58:00,
2013-04-20 05:03:00,52.4,50.1,30.00,WNW,298,12.0,14.0,92,0.00,,,0.30,Wunderground v.1.15,2013-04-20 09:03:00,
2013-04-20 05:08:00,52.4,50.4,30.00,West,280,7.0,14.0,93,0.00,,,0.30,Wunderground v.1.15,2013-04-20 09:08:00,
2013-04-20 05:13:00,52.5,50.5,30.00,WNW,296,6.0,11.0,93,0.00,,,0.30,Wunderground v.1.15,2013-04-20 09:13:00,
2013-04-20 05:18:00,52.5,50.2,30.00,WNW,302,8.0,11.0,92,0.00,,,0.30,Wunderground v.1.15,2013-04-20 09:18:00,
2013-04-20 05:23:00,52.5,50.5,30.01,WNW,291,0.0,10.0,93,0.00,,,0.30,Wunderground v.1.15,2013-04-20 09:23:00,
2013-04-20 05:28:00,52.5,50.5,30.01,WNW,288,12.0,16.0,93,0.00,,,0.30,Wunderground v.1.15,2013-04-20 09:28:00,
2013-04-20 05:33:00,52.4,50.1,30.02,WNW,302,15.0,22.0,92,0.00,,,0.30,Wunderground v.1.15,2013-04-20 09:33:00,
2013-04-20 05:38:00,52.3,50.3,30.02,NW,306,8.0,22.0,93,0.00,,,0.31,Wunderground v.1.15,2013-04-20 09:38:00,
2013-04-20 05:43:00,52.2,50.2,30.02,WNW,291,5.0,14.0,93,0.00,,,0.31,Wunderground v.1.15,2013-04-20 09:43:00,
2013-04-20 05:48:00,52.2,50.2,30.02,WNW,287,11.0,14.0,93,0.05,,,0.32,Wunderground v.1.15,2013-04-20 09:48:00,
2013-04-20 05:53:00,52.1,50.1,30.02,West,273,8.0,12.0,93,0.17,,,0.33,Wunderground v.1.15,2013-04-20 09:53:00,
2013-04-20 05:58:00,51.9,49.9,30.02,WNW,293,5.0,15.0,93,0.09,,,0.34,Wunderground v.1.15,2013-04-20 09:58:00,
2013-04-20 06:03:00,51.8,49.8,30.02,WNW,297,5.0,13.0,93,0.18,,,0.35,Wunderground v.1.15,2013-04-20 10:03:00,
2013-04-20 06:08:00,51.7,50.0,30.02,NW,310,6.0,13.0,94,0.29,,,0.37,Wunderground v.1.15,2013-04-20 10:08:00,
2013-04-20 06:13:00,51.6,49.9,30.01,NW,309,5.0,12.0,94,0.12,,,0.38,Wunderground v.1.15,2013-04-20 10:13:00,
2013-04-20 06:18:00,51.6,49.9,30.02,West,275,11.0,13.0,94,0.09,,,0.38,Wunderground v.1.15,2013-04-20 10:18:00,
2013-04-20 06:23:00,51.6,49.9,30.03,West,281,6.0,10.0,94,0.05,,,0.38,Wunderground v.1.15,2013-04-20 10:23:00,
2013-04-20 06:28:00,51.7,50.0,30.04,WNW,298,10.0,14.0,94,0.04,,,0.38,Wunderground v.1.15,2013-04-20 10:28:00,
2013-04-20 06:33:00,51.8,50.1,30.04,NW,304,5.0,9.0,94,0.00,,,0.38,Wunderground v.1.15,2013-04-20 10:33:00,
2013-04-20 06:38:00,51.8,49.8,30.04,WNW,286,2.0,9.0,93,0.00,,,0.38,Wunderground v.1.15,2013-04-20 10:38:00,
2013-04-20 06:43:00,51.8,49.8,30.04,WNW,295,6.0,12.0,93,0.00,,,0.38,Wunderground v.1.15,2013-04-20 10:43:00,
2013-04-20 06:48:00,51.8,49.8,30.04,WNW,296,6.0,13.0,93,0.00,,,0.38,Wunderground v.1.15,2013-04-20 10:48:00,
2013-04-20 06:53:00,51.8,50.1,30.03,WNW,288,5.0,11.0,94,0.00,,,0.38,Wunderground v.1.15,2013-04-20 10:53:00,
2013-04-20 06:58:00,51.9,50.2,30.04,WNW,299,8.0,11.0,94,0.00,,,0.38,Wunderground v.1.15,2013-04-20 10:58:00,
2013-04-20 07:03:00,51.8,49.8,30.04,WNW,298,7.0,12.0,93,0.00,,,0.38,Wunderground v.1.15,2013-04-20 11:03:00,
2013-04-20 07:08:00,51.9,50.2,30.04,NW,307,8.0,12.0,94,0.00,,,0.38,Wunderground v.1.15,2013-04-20 11:08:00,
2013-04-20 07:13:00,51.9,50.2,30.04,NNW,334,0.0,11.0,94,0.00,,,0.38,Wunderground v.1.15,2013-04-20 11:13:00,
2013-04-20 07:18:00,52.0,50.3,30.05,WNW,296,8.0,14.0,94,0.00,,,0.38,Wunderground v.1.15,2013-04-20 11:18:00,
2013-04-20 07:23:00,52.1,50.1,30.05,NW,313,7.0,12.0,93,0.00,,,0.38,Wunderground v.1.15,2013-04-20 11:23:00,
2013-04-20 07:28:00,52.1,49.8,30.05,NW,325,5.0,18.0,92,0.00,,,0.38,Wunderground v.1.15,2013-04-20 11:28:00,
2013-04-20 07:33:00,52.1,50.1,30.06,NW,309,5.0,13.0,93,0.00,,,0.38,Wunderground v.1.15,2013-04-20 11:33:00,
2013-04-20 07:38:00,52.2,50.2,30.05,NW,306,4.0,13.0,93,0.00,,,0.38,Wunderground v.1.15,2013-04-20 11:38:00,
2013-04-20 07:43:00,52.3,50.3,30.05,WNW,300,8.0,13.0,93,0.00,,,0.38,Wunderground v.1.15,2013-04-20 11:43:00,
2013-04-20 07:48:00,52.4,50.4,30.06,NNW,343,0.0,13.0,93,0.00,,,0.38,Wunderground v.1.15,2013-04-20 11:48:00,
2013-04-20 07:53:00,52.4,50.1,30.07,WNW,287,3.0,13.0,92,0.00,,,0.38,Wunderground v.1.15,2013-04-20 11:53:00,
2013-04-20 07:58:00,52.4,50.4,30.07,NW,311,7.0,13.0,93,0.00,,,0.38,Wunderground v.1.15,2013-04-20 11:58:00,
2013-04-20 08:03:00,52.5,50.2,30.08,WNW,294,9.0,10.0,92,0.00,,,0.38,Wunderground v.1.15,2013-04-20 12:03:00,
2013-04-20 08:08:00,52.5,50.2,30.08,NW,306,5.0,10.0,92,0.00,,,0.38,Wunderground v.1.15,2013-04-20 12:08:00,
2013-04-20 08:13:00,52.6,50.6,30.08,NW,313,5.0,11.0,93,0.00,,,0.38,Wunderground v.1.15,2013-04-20 12:13:00,
2013-04-20 08:18:00,52.6,50.3,30.08,WNW,290,7.0,11.0,92,0.00,,,0.38,Wunderground v.1.15,2013-04-20 12:18:00,
2013-04-20 08:23:00,52.7,50.4,30.08,WNW,296,5.0,9.0,92,0.00,,,0.38,Wunderground v.1.15,2013-04-20 12:23:00,
2013-04-20 08:28:00,52.8,50.5,30.08,NW,313,1.0,14.0,92,0.00,,,0.38,Wunderground v.1.15,2013-04-20 12:28:00,
2013-04-20 08:33:00,52.8,50.5,30.09,WNW,292,4.0,9.0,92,0.00,,,0.38,Wunderground v.1.15,2013-04-20 12:33:00,
2013-04-20 08:38:00,52.9,50.3,30.09,WNW,300,8.0,12.0,91,0.00,,,0.38,Wunderground v.1.15,2013-04-20 12:38:00,
2013-04-20 08:43:00,52.9,50.6,30.09,NW,319,12.0,12.0,92,0.00,,,0.38,Wunderground v.1.15,2013-04-20 12:43:00,
2013-04-20 08:48:00,53.0,50.7,30.09,NNW,331,4.0,12.0,92,0.00,,,0.38,Wunderground v.1.15,2013-04-20 12:48:00,
2013-04-20 08:53:00,53.2,50.9,30.09,WNW,290,8.0,9.0,92,0.00,,,0.38,Wunderground v.1.15,2013-04-20 12:53:00,
2013-04-20 08:58:00,53.3,50.7,30.10,North,351,3.0,9.0,91,0.00,,,0.38,Wunderground v.1.15,2013-04-20 12:58:00,
2013-04-20 09:03:00,53.3,51.0,30.10,NW,319,6.0,11.0,92,0.00,,,0.38,Wunderground v.1.15,2013-04-20 13:03:00,
2013-04-20 09:08:00,53.4,51.1,30.09,NNW,329,12.0,13.0,92,0.00,,,0.38,Wunderground v.1.15,2013-04-20 13:08:00,
2013-04-20 09:13:00,53.4,50.8,30.09,North,360,7.0,14.0,91,0.00,,,0.38,Wunderground v.1.15,2013-04-20 13:13:00,
2013-04-20 09:18:00,53.6,51.3,30.09,NW,326,6.0,14.0,92,0.00,,,0.38,Wunderground v.1.15,2013-04-20 13:18:00,
2013-04-20 09:23:00,53.7,51.1,30.09,NNW,344,4.0,12.0,91,0.00,,,0.38,Wunderground v.1.15,2013-04-20 13:23:00,
2013-04-20 09:28:00,53.8,51.2,30.09,North,355,2.0,12.0,91,0.00,,,0.38,Wunderground v.1.15,2013-04-20 13:28:00,
2013-04-20 09:33:00,53.8,50.9,30.09,North,360,5.0,11.0,90,0.00,,,0.38,Wunderground v.1.15,2013-04-20 13:33:00,
2013-04-20 09:38:00,54.0,51.4,30.09,NNW,340,6.0,11.0,91,0.00,,,0.38,Wunderground v.1.15,2013-04-20 13:38:00,
2013-04-20 09:43:00,54.2,51.6,30.09,NNW,336,4.0,9.0,91,0.00,,,0.38,Wunderground v.1.15,2013-04-20 13:43:00,
2013-04-20 09:48:00,54.4,51.5,30.09,North,5,8.0,11.0,90,0.00,,,0.38,Wunderground v.1.15,2013-04-20 13:48:00,
2013-04-20 09:53:00,54.6,51.7,30.09,North,355,3.0,11.0,90,0.00,,,0.38,Wunderground v.1.15,2013-04-20 13:53:00,
2013-04-20 09:58:00,54.9,52.0,30.10,North,349,5.0,11.0,90,0.00,,,0.38,Wunderground v.1.15,2013-04-20 13:58:00,
2013-04-20 10:03:00,55.0,52.1,30.11,NNE,26,0.0,15.0,90,0.00,,,0.38,Wunderground v.1.15,2013-04-20 14:03:00,
2013-04-20 10:09:00,55.4,52.2,30.10,NNW,337,6.0,15.0,89,0.00,,,0.38,Wunderground v.1.15,2013-04-20 14:09:00,
2013-04-20 10:14:00,55.5,51.7,30.11,NNW,343,6.0,14.0,87,0.00,,,0.38,Wunderground v.1.15,2013-04-20 14:14:00,
2013-04-20 10:19:00,55.6,51.8,30.11,North,360,10.0,15.0,87,0.00,,,0.38,Wunderground v.1.15,2013-04-20 14:19:00,
2013-04-20 10:24:00,55.8,52.0,30.11,North,360,9.0,11.0,87,0.00,,,0.38,Wunderground v.1.15,2013-04-20 14:24:00,
2013-04-20 10:29:00,55.9,51.8,30.12,North,360,8.0,12.0,86,0.00,,,0.38,Wunderground v.1.15,2013-04-20 14:29:00,
2013-04-20 10:34:00,56.0,51.6,30.13,NNW,345,10.0,14.0,85,0.00,,,0.38,Wunderground v.1.15,2013-04-20 14:34:00,
2013-04-20 10:39:00,56.3,51.5,30.13,NW,308,7.0,15.0,84,0.00,,,0.38,Wunderground v.1.15,2013-04-20 14:39:00,
2013-04-20 10:44:00,56.5,50.4,30.13,North,11,12.0,18.0,80,0.00,,,0.38,Wunderground v.1.15,2013-04-20 14:44:00,
2013-04-20 10:49:00,56.5,49.4,30.13,North,10,10.0,19.0,77,0.00,,,0.38,Wunderground v.1.15,2013-04-20 14:49:00,
2013-04-20 10:54:00,56.5,50.1,30.13,NNE,22,10.0,15.0,79,0.00,,,0.38,Wunderground v.1.15,2013-04-20 14:54:00,
2013-04-20 10:59:00,56.6,50.5,30.13,North,10,7.0,18.0,80,0.00,,,0.38,Wunderground v.1.15,2013-04-20 14:59:00,
2013-04-20 11:04:00,56.7,50.3,30.14,NNE,19,7.0,13.0,79,0.00,,,0.38,Wunderground v.1.15,2013-04-20 15:04:00,
2013-04-20 11:09:00,56.9,50.5,30.14,North,5,7.0,13.0,79,0.00,,,0.38,Wunderground v.1.15,2013-04-20 15:09:00,
2013-04-20 11:14:00,56.8,49.7,30.14,NNE,12,4.0,16.0,77,0.00,,,0.38,Wunderground v.1.15,2013-04-20 15:14:00,
2013-04-20 11:19:00,56.8,50.0,30.13,North,11,3.0,16.0,78,0.00,,,0.38,Wunderground v.1.15,2013-04-20 15:19:00,
2013-04-20 11:24:00,56.9,50.1,30.13,North,5,8.0,16.0,78,0.00,,,0.38,Wunderground v.1.15,2013-04-20 15:24:00,
2013-04-20 11:29:00,57.0,50.2,30.13,NNE,18,0.0,16.0,78,0.00,,,0.38,Wunderground v.1.15,2013-04-20 15:29:00,
2013-04-20 11:34:00,57.1,50.3,30.14,NNW,344,3.0,13.0,78,0.00,,,0.38,Wunderground v.1.15,2013-04-20 15:34:00,
2013-04-20 11:39:00,57.2,50.1,30.14,North,360,7.0,7.0,77,0.00,,,0.38,Wunderground v.1.15,2013-04-20 15:39:00,
2013-04-20 11:44:00,57.3,49.4,30.15,NNE,22,10.0,12.0,75,0.00,,,0.38,Wunderground v.1.15,2013-04-20 15:44:00,
2013-04-20 11:49:00,57.3,49.4,30.14,NNE,28,12.0,12.0,75,0.00,,,0.38,Wunderground v.1.15,2013-04-20 15:49:00,
2013-04-20 11:54:00,57.5,50.0,30.14,NE,53,6.0,13.0,76,0.00,,,0.38,Wunderground v.1.15,2013-04-20 15:54:00,
2013-04-20 11:59:00,57.6,48.3,30.15,NNE,33,12.0,12.0,71,0.00,,,0.38,Wunderground v.1.15,2013-04-20 15:59:00,
2013-04-20 12:04:00,57.6,47.9,30.15,NNE,22,2.0,14.0,70,0.00,,,0.38,Wunderground v.1.15,2013-04-20 16:04:00,
2013-04-20 12:09:00,57.7,47.2,30.14,North,349,12.0,14.0,68,0.00,,,0.38,Wunderground v.1.15,2013-04-20 16:09:00,
2013-04-20 12:14:00,57.8,47.3,30.14,NE,36,6.0,16.0,68,0.00,,,0.38,Wunderground v.1.15,2013-04-20 16:14:00,
2013-04-20 12:19:00,57.9,47.8,30.14,NNE,28,6.0,8.0,69,0.00,,,0.38,Wunderground v.1.15,2013-04-20 16:19:00,
2013-04-20 12:24:00,57.9,47.0,30.15,NNE,29,5.0,12.0,67,0.00,,,0.38,Wunderground v.1.15,2013-04-20 16:24:00,
2013-04-20 12:29:00,57.9,47.4,30.15,NNE,27,10.0,10.0,68,0.00,,,0.38,Wunderground v.1.15,2013-04-20 16:29:00,
2013-04-20 12:34:00,57.7,47.6,30.14,North,11,7.0,12.0,69,0.00,,,0.38,Wunderground v.1.15,2013-04-20 16:34:00,
2013-04-20 12:39:00,57.8,48.1,30.15,North,355,0.0,5.0,70,0.00,,,0.38,Wunderground v.1.15,2013-04-20 16:39:00,
2013-04-20 12:44:00,57.9,47.0,30.14,NNE,29,12.0,13.0,67,0.00,,,0.38,Wunderground v.1.15,2013-04-20 16:44:00,
2013-04-20 12:49:00,57.8,46.5,30.15,NE,36,9.0,9.0,66,0.00,,,0.38,Wunderground v.1.15,2013-04-20 16:49:00,
2013-04-20 12:54:00,57.6,46.3,30.15,ENE,71,0.0,14.0,66,0.00,,,0.38,Wunderground v.1.15,2013-04-20 16:54:00,
2013-04-20 12:59:00,57.6,45.9,30.15,NNE,22,10.0,12.0,65,0.00,,,0.38,Wunderground v.1.15,2013-04-20 16:59:00,
2013-04-20 13:04:00,57.6,45.9,30.15,NNE,29,7.0,13.0,65,0.00,,,0.38,Wunderground v.1.15,2013-04-20 17:04:00,
2013-04-20 13:09:00,57.5,46.2,30.14,NE,44,7.0,8.0,66,0.00,,,0.38,Wunderground v.1.15,2013-04-20 17:09:00,
2013-04-20 13:14:00,57.4,46.5,30.14,NNE,19,2.0,12.0,67,0.00,,,0.38,Wunderground v.1.15,2013-04-20 17:14:00,
2013-04-20 13:19:00,57.5,47.0,30.14,North,10,10.0,13.0,68,0.00,,,0.38,Wunderground v.1.15,2013-04-20 17:19:00,
2013-04-20 13:24:00,57.6,47.5,30.14,North,360,7.0,13.0,69,0.00,,,0.38,Wunderground v.1.15,2013-04-20 17:24:00,
2013-04-20 13:29:00,57.9,47.0,30.14,NNE,30,0.0,6.0,67,0.00,,,0.38,Wunderground v.1.15,2013-04-20 17:29:00,
2013-04-20 13:34:00,58.0,47.1,30.14,NE,38,8.0,13.0,67,0.00,,,0.38,Wunderground v.1.15,2013-04-20 17:34:00,
2013-04-20 13:39:00,58.0,47.5,30.14,NNE,33,1.0,5.0,68,0.00,,,0.38,Wunderground v.1.15,2013-04-20 17:39:00,
2013-04-20 13:44:00,58.0,47.1,30.14,North,360,1.0,12.0,67,0.00,,,0.38,Wunderground v.1.15,2013-04-20 17:44:00,
2013-04-20 13:49:00,58.1,47.2,30.14,NNE,30,6.0,7.0,67,0.00,,,0.38,Wunderground v.1.15,2013-04-20 17:49:00,
2013-04-20 13:54:00,58.2,47.7,30.13,North,351,7.0,12.0,68,0.00,,,0.38,Wunderground v.1.15,2013-04-20 17:54:00,
2013-04-20 13:59:00,58.5,47.2,30.13,North,360,9.0,9.0,66,0.00,,,0.38,Wunderground v.1.15,2013-04-20 17:59:00,
2013-04-20 14:04:00,58.6,47.3,30.13,NNE,28,7.0,14.0,66,0.00,,,0.38,Wunderground v.1.15,2013-04-20 18:04:00,
2013-04-20 14:09:00,58.6,47.3,30.13,North,355,0.0,8.0,66,0.00,,,0.38,Wunderground v.1.15,2013-04-20 18:09:00,
2013-04-20 14:14:00,58.9,46.3,30.14,NE,42,8.0,12.0,63,0.00,,,0.38,Wunderground v.1.15,2013-04-20 18:14:00,
2013-04-20 14:19:00,58.8,46.6,30.14,NNE,15,6.0,7.0,64,0.00,,,0.38,Wunderground v.1.15,2013-04-20 18:19:00,
2013-04-20 14:24:00,59.3,47.9,30.14,North,360,5.0,9.0,66,0.00,,,0.38,Wunderground v.1.15,2013-04-20 18:24:00,
2013-04-20 14:29:00,59.7,47.5,30.14,NE,38,2.0,7.0,64,0.00,,,0.38,Wunderground v.1.15,2013-04-20 18:29:00,
2013-04-20 14:34:00,59.6,46.1,30.15,NW,317,1.0,10.0,61,0.00,,,0.38,Wunderground v.1.15,2013-04-20 18:34:00,
2013-04-20 14:39:00,59.6,45.7,30.14,NE,52,12.0,12.0,60,0.00,,,0.38,Wunderground v.1.15,2013-04-20 18:39:00,
2013-04-20 14:44:00,59.3,45.8,30.15,NNE,12,5.0,14.0,61,0.00,,,0.38,Wunderground v.1.15,2013-04-20 18:44:00,
2013-04-20 14:49:00,59.4,45.9,30.14,NNE,17,4.0,7.0,61,0.00,,,0.38,Wunderground v.1.15,2013-04-20 18:49:00,
2013-04-20 14:54:00,59.4,46.4,30.15,NNE,30,5.0,8.0,62,0.00,,,0.38,Wunderground v.1.15,2013-04-20 18:54:00,
2013-04-20 14:59:00,59.6,46.6,30.14,NNE,13,11.0,13.0,62,0.00,,,0.38,Wunderground v.1.15,2013-04-20 18:59:00,
2013-04-20 15:04:00,59.9,46.8,30.14,NE,53,4.0,13.0,62,0.00,,,0.38,Wunderground v.1.15,2013-04-20 19:04:00,
2013-04-20 15:09:00,59.7,46.2,30.14,NE,46,7.0,9.0,61,0.00,,,0.38,Wunderground v.1.15,2013-04-20 19:09:00,
2013-04-20 15:14:00,59.6,47.0,30.13,North,5,0.0,12.0,63,0.00,,,0.38,Wunderground v.1.15,2013-04-20 19:14:00,
2013-04-20 15:19:00,59.9,46.0,30.14,NNW,336,2.0,7.0,60,0.00,,,0.38,Wunderground v.1.15,2013-04-20 19:19:00,
2013-04-20 15:24:00,59.9,46.0,30.14,NW,319,11.0,12.0,60,0.00,,,0.38,Wunderground v.1.15,2013-04-20 19:24:00,
2013-04-20 15:29:00,59.9,45.5,30.14,North,355,9.0,12.0,59,0.00,,,0.38,Wunderground v.1.15,2013-04-20 19:29:00,
2013-04-20 15:34:00,59.7,44.0,30.14,North,11,6.0,12.0,56,0.00,,,0.38,Wunderground v.1.15,2013-04-20 19:34:00,
2013-04-20 15:40:00,59.9,44.6,30.14,NE,38,7.0,7.0,57,0.00,,,0.38,Wunderground v.1.15,2013-04-20 19:40:00,
2013-04-20 15:45:00,59.9,45.1,30.14,North,355,7.0,13.0,58,0.00,,,0.38,Wunderground v.1.15,2013-04-20 19:45:00,
2013-04-20 15:49:00,59.9,44.6,30.14,NNW,342,8.0,9.0,57,0.00,,,0.38,Wunderground v.1.15,2013-04-20 19:49:00,
2013-04-20 15:54:00,59.9,44.6,30.13,North,5,5.0,13.0,57,0.00,,,0.38,Wunderground v.1.15,2013-04-20 19:54:00,
2013-04-20 16:00:00,59.9,44.2,30.13,North,9,13.0,13.0,56,0.00,,,0.38,Wunderground v.1.15,2013-04-20 20:00:00,
2013-04-20 16:05:00,59.9,44.2,30.13,NNW,331,5.0,14.0,56,0.00,,,0.38,Wunderground v.1.15,2013-04-20 20:05:00,
2013-04-20 16:10:00,60.3,45.0,30.13,NNE,30,1.0,5.0,57,0.00,,,0.38,Wunderground v.1.15,2013-04-20 20:10:00,
2013-04-20 16:15:00,60.5,43.8,30.13,NNE,17,9.0,11.0,54,0.00,,,0.38,Wunderground v.1.15,2013-04-20 20:15:00,
2013-04-20 16:20:00,60.2,44.4,30.13,NNW,338,7.0,7.0,56,0.00,,,0.38,Wunderground v.1.15,2013-04-20 20:20:00,
2013-04-20 16:25:00,60.0,43.3,30.14,NNW,341,6.0,10.0,54,0.00,,,0.38,Wunderground v.1.15,2013-04-20 20:25:00,
2013-04-20 16:30:00,59.9,44.2,30.14,NNW,330,10.0,10.0,56,0.00,,,0.38,Wunderground v.1.15,2013-04-20 20:30:00,
2013-04-20 16:35:00,60.0,43.3,30.13,NNE,20,4.0,10.0,54,0.00,,,0.38,Wunderground v.1.15,2013-04-20 20:35:00,
2013-04-20 16:40:00,60.1,44.3,30.13,NE,36,0.0,3.0,56,0.00,,,0.38,Wunderground v.1.15,2013-04-20 20:40:00,
2013-04-20 16:45:00,60.3,44.1,30.14,NNW,328,2.0,8.0,55,0.00,,,0.38,Wunderground v.1.15,2013-04-20 20:45:00,
2013-04-20 16:50:00,60.2,44.0,30.14,NNW,333,3.0,6.0,55,0.00,,,0.38,Wunderground v.1.15,2013-04-20 20:50:00,
2013-04-20 16:55:00,60.2,44.0,30.14,North,5,0.0,6.0,55,0.00,,,0.38,Wunderground v.1.15,2013-04-20 20:55:00,
2013-04-20 17:00:00,60.1,43.4,30.13,NNW,336,6.0,10.0,54,0.00,,,0.38,Wunderground v.1.15,2013-04-20 21:00:00,
2013-04-20 17:05:00,60.1,44.3,30.13,NE,41,5.0,10.0,56,0.00,,,0.38,Wunderground v.1.15,2013-04-20 21:05:00,
2013-04-20 17:10:00,60.3,44.1,30.13,North,350,0.0,5.0,55,0.00,,,0.38,Wunderground v.1.15,2013-04-20 21:10:00,
2013-04-20 17:15:00,60.4,43.7,30.15,NNW,327,1.0,6.0,54,0.00,,,0.38,Wunderground v.1.15,2013-04-20 21:15:00,
2013-04-20 17:20:00,60.4,44.2,30.14,North,351,5.0,6.0,55,0.00,,,0.38,Wunderground v.1.15,2013-04-20 21:20:00,
2013-04-20 17:25:00,60.2,44.0,30.15,North,355,0.0,7.0,55,0.00,,,0.38,Wunderground v.1.15,2013-04-20 21:25:00,
2013-04-20 17:30:00,60.3,43.6,30.15,NNE,29,0.0,8.0,54,0.00,,,0.38,Wunderground v.1.15,2013-04-20 21:30:00,
2013-04-20 17:35:00,60.2,43.5,30.15,NNE,17,1.0,8.0,54,0.00,,,0.38,Wunderground v.1.15,2013-04-20 21:35:00,
2013-04-20 17:40:00,60.1,43.9,30.14,North,360,2.0,7.0,55,0.00,,,0.38,Wunderground v.1.15,2013-04-20 21:40:00,
2013-04-20 17:45:00,60.0,44.3,30.14,North,5,3.0,10.0,56,0.00,,,0.38,Wunderground v.1.15,2013-04-20 21:45:00,
2013-04-20 17:50:00,60.3,44.5,30.14,NNE,12,4.0,4.0,56,0.00,,,0.38,Wunderground v.1.15,2013-04-20 21:50:00,
2013-04-20 17:55:00,60.4,43.7,30.15,NNW,338,5.0,9.0,54,0.00,,,0.38,Wunderground v.1.15,2013-04-20 21:55:00,
2013-04-20 18:00:00,60.2,44.9,30.14,North,355,3.0,8.0,57,0.00,,,0.38,Wunderground v.1.15,2013-04-20 22:00:00,
2013-04-20 18:05:00,60.0,44.3,30.15,North,360,3.0,12.0,56,0.00,,,0.38,Wunderground v.1.15,2013-04-20 22:05:00,
2013-04-20 18:10:00,60.0,45.2,30.14,NNW,342,0.0,7.0,58,0.00,,,0.38,Wunderground v.1.15,2013-04-20 22:10:00,
2013-04-20 18:15:00,59.7,44.0,30.15,NNE,13,5.0,9.0,56,0.00,,,0.38,Wunderground v.1.15,2013-04-20 22:15:00,
2013-04-20 18:20:00,59.6,44.8,30.16,North,355,2.0,5.0,58,0.00,,,0.38,Wunderground v.1.15,2013-04-20 22:20:00,
2013-04-20 18:25:00,59.5,44.2,30.15,NNW,333,7.0,9.0,57,0.00,,,0.38,Wunderground v.1.15,2013-04-20 22:25:00,
2013-04-20 18:30:00,59.4,44.2,30.15,North,360,0.0,5.0,57,0.00,,,0.38,Wunderground v.1.15,2013-04-20 22:30:00,
2013-04-20 18:36:00,59.4,44.6,30.15,NNW,341,6.0,9.0,58,0.00,,,0.38,Wunderground v.1.15,2013-04-20 22:36:00,
2013-04-20 18:41:00,59.4,44.6,30.15,NNW,340,3.0,10.0,58,0.00,,,0.38,Wunderground v.1.15,2013-04-20 22:41:00,
2013-04-20 18:46:00,59.3,44.5,30.16,NNW,330,5.0,11.0,58,0.00,,,0.38,Wunderground v.1.15,2013-04-20 22:46:00,
2013-04-20 18:51:00,59.1,44.3,30.16,North,355,7.0,9.0,58,0.00,,,0.38,Wunderground v.1.15,2013-04-20 22:51:00,
2013-04-20 18:56:00,59.1,44.3,30.17,North,5,7.0,9.0,58,0.00,,,0.38,Wunderground v.1.15,2013-04-20 22:56:00,
2013-04-20 19:01:00,59.0,44.2,30.16,NNE,14,5.0,5.0,58,0.00,,,0.38,Wunderground v.1.15,2013-04-20 23:01:00,
2013-04-20 19:06:00,58.9,44.1,30.16,NNE,19,5.0,9.0,58,0.00,,,0.38,Wunderground v.1.15,2013-04-20 23:06:00,
2013-04-20 19:11:00,58.8,44.5,30.17,NNE,19,0.0,6.0,59,0.00,,,0.38,Wunderground v.1.15,2013-04-20 23:11:00,
2013-04-20 19:16:00,58.9,44.6,30.16,NE,34,6.0,10.0,59,0.00,,,0.38,Wunderground v.1.15,2013-04-20 23:16:00,
2013-04-20 19:21:00,59.0,44.2,30.17,NE,51,2.0,7.0,58,0.00,,,0.38,Wunderground v.1.15,2013-04-20 23:21:00,
2013-04-20 19:26:00,58.9,43.7,30.17,North,11,0.0,9.0,57,0.00,,,0.38,Wunderground v.1.15,2013-04-20 23:26:00,
2013-04-20 19:31:00,58.8,43.6,30.17,NE,34,1.0,8.0,57,0.00,,,0.38,Wunderground v.1.15,2013-04-20 23:31:00,
2013-04-20 19:36:00,58.8,44.0,30.18,NE,38,0.0,8.0,58,0.00,,,0.38,Wunderground v.1.15,2013-04-20 23:36:00,
2013-04-20 19:41:00,58.7,44.4,30.18,NE,37,0.0,6.0,59,0.00,,,0.38,Wunderground v.1.15,2013-04-20 23:41:00,
2013-04-20 19:46:00,58.5,44.7,30.17,NE,36,0.0,8.0,60,0.00,,,0.38,Wunderground v.1.15,2013-04-20 23:46:00,
2013-04-20 19:51:00,58.4,44.1,30.17,NE,42,0.0,7.0,59,0.00,,,0.38,Wunderground v.1.15,2013-04-20 23:51:00,
2013-04-20 19:56:00,58.2,43.5,30.18,NNE,20,3.0,7.0,58,0.00,,,0.38,Wunderground v.1.15,2013-04-20 23:56:00,
2013-04-20 20:01:00,58.0,43.3,30.18,NNE,17,6.0,9.0,58,0.00,,,0.38,Wunderground v.1.15,2013-04-21 00:01:00,
2013-04-20 20:06:00,57.8,43.6,30.18,NE,36,0.0,9.0,59,0.00,,,0.38,Wunderground v.1.15,2013-04-21 00:06:00,
2013-04-20 20:11:00,57.7,43.9,30.18,NNE,28,5.0,10.0,60,0.00,,,0.38,Wunderground v.1.15,2013-04-21 00:11:00,
2013-04-20 20:16:00,57.6,44.2,30.18,NNE,30,0.0,10.0,61,0.00,,,0.38,Wunderground v.1.15,2013-04-21 00:16:00,
2013-04-20 20:21:00,57.4,44.1,30.19,NE,38,0.0,4.0,61,0.00,,,0.38,Wunderground v.1.15,2013-04-21 00:21:00,
2013-04-20 20:26:00,57.3,43.5,30.19,NNE,17,0.0,7.0,60,0.00,,,0.38,Wunderground v.1.15,2013-04-21 00:26:00,
2013-04-20 20:31:00,57.3,43.5,30.19,ENE,57,0.0,5.0,60,0.00,,,0.38,Wunderground v.1.15,2013-04-21 00:31:00,
2013-04-20 20:36:00,57.3,43.5,30.19,NNE,25,0.0,9.0,60,0.00,,,0.38,Wunderground v.1.15,2013-04-21 00:36:00,
2013-04-20 20:41:00,57.3,44.0,30.20,ENE,60,0.0,5.0,61,0.00,,,0.38,Wunderground v.1.15,2013-04-21 00:41:00,
2013-04-20 20:46:00,57.2,44.3,30.20,ENE,60,0.0,5.0,62,0.00,,,0.38,Wunderground v.1.15,2013-04-21 00:46:00,
2013-04-20 20:51:00,57.0,44.5,30.21,NE,47,0.0,0.0,63,0.00,,,0.38,Wunderground v.1.15,2013-04-21 00:51:00,
2013-04-20 20:56:00,56.9,44.4,30.21,NE,36,0.0,0.0,63,0.00,,,0.38,Wunderground v.1.15,2013-04-21 00:56:00,
2013-04-20 21:01:00,56.8,44.7,30.21,NE,36,0.0,0.0,64,0.00,,,0.38,Wunderground v.1.15,2013-04-21 01:01:00,
2013-04-20 21:06:00,56.7,45.1,30.22,NE,36,0.0,0.0,65,0.00,,,0.38,Wunderground v.1.15,2013-04-21 01:06:00,
2013-04-20 21:11:00,56.7,44.7,30.22,NE,34,0.0,7.0,64,0.00,,,0.38,Wunderground v.1.15,2013-04-21 01:11:00,
2013-04-20 21:16:00,56.6,45.0,30.22,NE,35,0.0,7.0,65,0.00,,,0.38,Wunderground v.1.15,2013-04-21 01:16:00,
2013-04-20 21:21:00,56.5,45.3,30.22,NE,37,0.0,2.0,66,0.00,,,0.38,Wunderground v.1.15,2013-04-21 01:21:00,
2013-04-20 21:26:00,56.5,45.3,30.23,ENE,70,0.0,5.0,66,0.00,,,0.38,Wunderground v.1.15,2013-04-21 01:26:00,
2013-04-20 21:31:00,56.5,44.9,30.23,ENE,59,0.0,6.0,65,0.00,,,0.38,Wunderground v.1.15,2013-04-21 01:31:00,
2013-04-20 21:36:00,56.4,45.2,30.23,ENE,59,0.0,6.0,66,0.00,,,0.38,Wunderground v.1.15,2013-04-21 01:36:00,
2013-04-20 21:41:00,56.3,45.1,30.23,NE,37,0.0,3.0,66,0.00,,,0.38,Wunderground v.1.15,2013-04-21 01:41:00,
2013-04-20 21:46:00,56.1,44.9,30.24,NE,42,0.0,6.0,66,0.00,,,0.38,Wunderground v.1.15,2013-04-21 01:46:00,
2013-04-20 21:51:00,56.1,45.3,30.24,NE,40,0.0,4.0,67,0.00,,,0.38,Wunderground v.1.15,2013-04-21 01:51:00,
2013-04-20 21:56:00,56.0,45.2,30.24,NE,39,0.0,5.0,67,0.00,,,0.38,Wunderground v.1.15,2013-04-21 01:56:00,
2013-04-20 22:01:00,56.0,44.8,30.24,NE,51,0.0,10.0,66,0.00,,,0.38,Wunderground v.1.15,2013-04-21 02:01:00,
2013-04-20 22:06:00,56.0,44.8,30.24,NE,45,0.0,10.0,66,0.00,,,0.38,Wunderground v.1.15,2013-04-21 02:06:00,
2013-04-20 22:11:00,56.0,44.4,30.24,NE,45,0.0,1.0,65,0.00,,,0.38,Wunderground v.1.15,2013-04-21 02:11:00,
2013-04-20 22:16:00,55.9,43.9,30.24,NE,41,0.0,4.0,64,0.00,,,0.38,Wunderground v.1.15,2013-04-21 02:16:00,
2013-04-20 22:21:00,55.9,43.5,30.24,NNE,32,0.0,1.0,63,0.00,,,0.38,Wunderground v.1.15,2013-04-21 02:21:00,
2013-04-20 22:26:00,56.0,43.6,30.24,NE,40,0.0,7.0,63,0.00,,,0.38,Wunderground v.1.15,2013-04-21 02:26:00,
2013-04-20 22:31:00,56.0,44.0,30.24,NNE,26,0.0,8.0,64,0.00,,,0.38,Wunderground v.1.15,2013-04-21 02:31:00,
2013-04-20 22:37:00,55.9,43.9,30.24,NNE,27,0.0,8.0,64,0.00,,,0.38,Wunderground v.1.15,2013-04-21 02:37:00,
2013-04-20 22:42:00,55.8,43.0,30.24,ENE,61,0.0,8.0,62,0.00,,,0.38,Wunderground v.1.15,2013-04-21 02:42:00,
2013-04-20 22:47:00,55.7,42.9,30.25,NNE,24,0.0,8.0,62,0.00,,,0.38,Wunderground v.1.15,2013-04-21 02:47:00,
2013-04-20 22:52:00,55.6,43.2,30.24,NE,38,0.0,5.0,63,0.00,,,0.38,Wunderground v.1.15,2013-04-21 02:52:00,
2013-04-20 22:57:00,55.5,43.1,30.25,NNE,19,0.0,5.0,63,0.00,,,0.38,Wunderground v.1.15,2013-04-21 02:57:00,
2013-04-20 23:02:00,55.4,43.0,30.24,NNE,21,0.0,4.0,63,0.00,,,0.38,Wunderground v.1.15,2013-04-21 03:02:00,
2013-04-20 23:07:00,55.3,42.9,30.24,NE,34,0.0,5.0,63,0.00,,,0.38,Wunderground v.1.15,2013-04-21 03:07:00,
2013-04-20 23:12:00,55.2,42.4,30.24,NE,36,0.0,5.0,62,0.00,,,0.38,Wunderground v.1.15,2013-04-21 03:12:00,
2013-04-20 23:17:00,55.2,43.2,30.24,NE,51,2.0,6.0,64,0.00,,,0.38,Wunderground v.1.15,2013-04-21 03:17:00,
2013-04-20 23:22:00,55.2,42.8,30.24,NE,53,0.0,2.0,63,0.00,,,0.38,Wunderground v.1.15,2013-04-21 03:22:00,
2013-04-20 23:27:00,55.2,42.8,30.24,NE,40,0.0,7.0,63,0.00,,,0.38,Wunderground v.1.15,2013-04-21 03:27:00,
2013-04-20 23:32:00,55.3,42.5,30.23,NE,54,2.0,6.0,62,0.00,,,0.38,Wunderground v.1.15,2013-04-21 03:32:00,
2013-04-20 23:37:00,55.2,42.4,30.24,NE,48,1.0,7.0,62,0.00,,,0.38,Wunderground v.1.15,2013-04-21 03:37:00,
2013-04-20 23:42:00,55.2,42.8,30.24,NE,41,0.0,9.0,63,0.00,,,0.38,Wunderground v.1.15,2013-04-21 03:42:00,
2013-04-20 23:47:00,55.1,42.7,30.24,NNE,33,0.0,9.0,63,0.00,,,0.38,Wunderground v.1.15,2013-04-21 03:47:00,
2013-04-20 23:52:00,54.9,42.9,30.24,NE,53,0.0,8.0,64,0.00,,,0.38,Wunderground v.1.15,2013-04-21 03:52:00,
2013-04-20 23:57:00,54.8,43.3,30.24,North,9,0.0,8.0,65,0.00,,,0.38,Wunderground v.1.15,2013-04-21 03:57:00,